UKLR/RWN METAR and TAF weather

Enter ICAO airport designator
Station Type Date Time Source
UKLR METAR 2019/04/22 15:00 UTC NOAA

UKLR 221500Z 13006MPS 090V170 9999 SCT030 16/M08 Q1025 NOSIG


Station Type Date Time Source
UKLR Decoded METAR 2019/04/22 15:00 UTC NOAA

Rivne, Ukraine (UKLR) 50-35N 026-08E
Apr 22, 2019 - 11:00 AM EDT / 2019.04.22 1500 UTC
Wind: from the SE (130 degrees) at 13 MPH (12 KT) (direction variable):0
Visibility: greater than 7 mile(s):0
Sky conditions: partly cloudy
Temperature: 60 F (16 C)
Dew Point: 17 F (-8 C)
Relative Humidity: 18%
Pressure (altimeter): 30.27 in. Hg (1025 hPa)
ob: UKLR 221500Z 13006MPS 090V170 9999 SCT030 16/M08 Q1025 NOSIG
cycle: 15

Station Type Date Time Source
UKLR TAF 2019/01/25 06:18 UTC NOAA

TAF TAF UKLR 250512Z 2506/2615 09007G12MPS 9999 BKN010
TEMPO 2606/2615 12009G14MPS 2100 -SN BLSN BKN005

Example: see airport list